sensor_id;sensor_type;location;lat;lon;timestamp;P1;durP1;ratioP1;P2;durP2;ratioP2
54193;SDS011;40102;50.906;6.972;2024-01-30T00:02:09;11.52;;;7.43;;
54193;SDS011;40102;50.906;6.972;2024-01-30T00:04:34;12.65;;;6.82;;
54193;SDS011;40102;50.906;6.972;2024-01-30T00:07:00;13.93;;;7.18;;
54193;SDS011;40102;50.906;6.972;2024-01-30T00:09:25;10.63;;;6.57;;
54193;SDS011;40102;50.906;6.972;2024-01-30T00:11:50;11.30;;;7.18;;
54193;SDS011;40102;50.906;6.972;2024-01-30T00:14:16;12.68;;;7.18;;
54193;SDS011;40102;50.906;6.972;2024-01-30T00:16:41;14.82;;;7.82;;
54193;SDS011;40102;50.906;6.972;2024-01-30T00:19:07;10.85;;;6.40;;
54193;SDS011;40102;50.906;6.972;2024-01-30T00:21:33;13.75;;;6.78;;
54193;SDS011;40102;50.906;6.972;2024-01-30T00:23:58;12.90;;;7.15;;
54193;SDS011;40102;50.906;6.972;2024-01-30T00:26:24;14.65;;;6.93;;
54193;SDS011;40102;50.906;6.972;2024-01-30T00:28:49;13.38;;;6.57;;
54193;SDS011;40102;50.906;6.972;2024-01-30T00:31:15;13.18;;;7.55;;
54193;SDS011;40102;50.906;6.972;2024-01-30T00:33:40;13.10;;;7.53;;
54193;SDS011;40102;50.906;6.972;2024-01-30T00:36:07;12.55;;;7.18;;
54193;SDS011;40102;50.906;6.972;2024-01-30T00:38:33;13.85;;;7.60;;
54193;SDS011;40102;50.906;6.972;2024-01-30T00:40:59;12.25;;;6.65;;
54193;SDS011;40102;50.906;6.972;2024-01-30T00:43:24;13.93;;;7.10;;
54193;SDS011;40102;50.906;6.972;2024-01-30T00:45:50;12.68;;;7.47;;
54193;SDS011;40102;50.906;6.972;2024-01-30T00:48:17;12.32;;;7.00;;
54193;SDS011;40102;50.906;6.972;2024-01-30T00:50:43;11.55;;;6.88;;
54193;SDS011;40102;50.906;6.972;2024-01-30T00:53:08;14.32;;;7.72;;
54193;SDS011;40102;50.906;6.972;2024-01-30T00:55:34;13.10;;;6.97;;
54193;SDS011;40102;50.906;6.972;2024-01-30T00:58:00;10.48;;;6.85;;
54193;SDS011;40102;50.906;6.972;2024-01-30T01:00:26;10.90;;;6.53;;
54193;SDS011;40102;50.906;6.972;2024-01-30T01:02:54;12.40;;;7.28;;
54193;SDS011;40102;50.906;6.972;2024-01-30T01:05:20;13.23;;;6.85;;
54193;SDS011;40102;50.906;6.972;2024-01-30T01:07:46;15.45;;;7.40;;
54193;SDS011;40102;50.906;6.972;2024-01-30T01:10:13;10.95;;;6.85;;
54193;SDS011;40102;50.906;6.972;2024-01-30T01:12:39;12.48;;;7.10;;
54193;SDS011;40102;50.906;6.972;2024-01-30T01:15:04;12.23;;;7.20;;
54193;SDS011;40102;50.906;6.972;2024-01-30T01:17:30;10.63;;;6.30;;
54193;SDS011;40102;50.906;6.972;2024-01-30T01:19:56;13.60;;;7.00;;
54193;SDS011;40102;50.906;6.972;2024-01-30T01:22:22;15.95;;;7.30;;
54193;SDS011;40102;50.906;6.972;2024-01-30T01:24:48;11.10;;;6.60;;
54193;SDS011;40102;50.906;6.972;2024-01-30T01:27:13;13.57;;;6.90;;
54193;SDS011;40102;50.906;6.972;2024-01-30T01:29:38;10.65;;;6.20;;
54193;SDS011;40102;50.906;6.972;2024-01-30T01:32:04;11.63;;;6.53;;
54193;SDS011;40102;50.906;6.972;2024-01-30T01:34:30;11.77;;;6.75;;
54193;SDS011;40102;50.906;6.972;2024-01-30T01:36:56;11.70;;;6.88;;
54193;SDS011;40102;50.906;6.972;2024-01-30T01:39:22;14.40;;;7.22;;
54193;SDS011;40102;50.906;6.972;2024-01-30T01:41:50;11.55;;;6.45;;
54193;SDS011;40102;50.906;6.972;2024-01-30T01:44:17;11.32;;;6.85;;
54193;SDS011;40102;50.906;6.972;2024-01-30T01:46:43;12.25;;;6.82;;
54193;SDS011;40102;50.906;6.972;2024-01-30T01:49:09;11.32;;;6.90;;
54193;SDS011;40102;50.906;6.972;2024-01-30T01:51:35;16.90;;;7.07;;
54193;SDS011;40102;50.906;6.972;2024-01-30T01:54:03;11.40;;;6.80;;
54193;SDS011;40102;50.906;6.972;2024-01-30T01:56:33;14.73;;;6.38;;
54193;SDS011;40102;50.906;6.972;2024-01-30T01:59:05;11.30;;;6.80;;
54193;SDS011;40102;50.906;6.972;2024-01-30T02:01:33;12.00;;;6.57;;
54193;SDS011;40102;50.906;6.972;2024-01-30T02:04:01;11.75;;;6.38;;
54193;SDS011;40102;50.906;6.972;2024-01-30T02:06:27;11.82;;;6.38;;
54193;SDS011;40102;50.906;6.972;2024-01-30T02:08:53;11.63;;;6.95;;
54193;SDS011;40102;50.906;6.972;2024-01-30T02:11:22;11.73;;;6.50;;
54193;SDS011;40102;50.906;6.972;2024-01-30T02:13:48;12.55;;;6.53;;
54193;SDS011;40102;50.906;6.972;2024-01-30T02:16:14;12.02;;;6.57;;
54193;SDS011;40102;50.906;6.972;2024-01-30T02:18:39;11.73;;;6.43;;
54193;SDS011;40102;50.906;6.972;2024-01-30T02:21:10;12.98;;;6.35;;
54193;SDS011;40102;50.906;6.972;2024-01-30T02:23:36;10.07;;;6.20;;
54193;SDS011;40102;50.906;6.972;2024-01-30T02:26:02;14.80;;;7.00;;
54193;SDS011;40102;50.906;6.972;2024-01-30T02:28:28;14.18;;;6.53;;
54193;SDS011;40102;50.906;6.972;2024-01-30T02:30:53;9.90;;;5.80;;
54193;SDS011;40102;50.906;6.972;2024-01-30T02:33:19;11.45;;;6.22;;
54193;SDS011;40102;50.906;6.972;2024-01-30T02:35:44;12.98;;;6.47;;
54193;SDS011;40102;50.906;6.972;2024-01-30T02:38:10;12.40;;;6.53;;
54193;SDS011;40102;50.906;6.972;2024-01-30T02:40:35;14.73;;;6.68;;
54193;SDS011;40102;50.906;6.972;2024-01-30T02:43:01;11.93;;;6.47;;
54193;SDS011;40102;50.906;6.972;2024-01-30T02:45:28;10.93;;;5.93;;
54193;SDS011;40102;50.906;6.972;2024-01-30T02:47:53;11.35;;;6.05;;
54193;SDS011;40102;50.906;6.972;2024-01-30T02:50:19;12.18;;;6.30;;
54193;SDS011;40102;50.906;6.972;2024-01-30T02:52:44;11.77;;;6.55;;
54193;SDS011;40102;50.906;6.972;2024-01-30T02:55:10;11.60;;;6.72;;
54193;SDS011;40102;50.906;6.972;2024-01-30T02:57:35;11.48;;;5.80;;
54193;SDS011;40102;50.906;6.972;2024-01-30T03:00:05;9.68;;;5.93;;
54193;SDS011;40102;50.906;6.972;2024-01-30T03:02:31;11.07;;;6.18;;
54193;SDS011;40102;50.906;6.972;2024-01-30T03:05:00;11.82;;;6.63;;
54193;SDS011;40102;50.906;6.972;2024-01-30T03:07:26;14.10;;;7.10;;
54193;SDS011;40102;50.906;6.972;2024-01-30T03:09:51;10.63;;;6.10;;
54193;SDS011;40102;50.906;6.972;2024-01-30T03:12:17;10.68;;;6.07;;
54193;SDS011;40102;50.906;6.972;2024-01-30T03:14:43;10.40;;;6.22;;
54193;SDS011;40102;50.906;6.972;2024-01-30T03:17:08;10.00;;;6.18;;
54193;SDS011;40102;50.906;6.972;2024-01-30T03:19:33;9.50;;;5.03;;
54193;SDS011;40102;50.906;6.972;2024-01-30T03:22:02;8.35;;;5.93;;
54193;SDS011;40102;50.906;6.972;2024-01-30T03:24:27;12.63;;;6.25;;
54193;SDS011;40102;50.906;6.972;2024-01-30T03:26:53;9.75;;;6.05;;
54193;SDS011;40102;50.906;6.972;2024-01-30T03:29:18;12.60;;;5.90;;
54193;SDS011;40102;50.906;6.972;2024-01-30T03:31:44;10.18;;;5.80;;
54193;SDS011;40102;50.906;6.972;2024-01-30T03:34:09;10.35;;;6.00;;
54193;SDS011;40102;50.906;6.972;2024-01-30T03:36:34;10.70;;;5.50;;
54193;SDS011;40102;50.906;6.972;2024-01-30T03:39:00;12.25;;;6.05;;
54193;SDS011;40102;50.906;6.972;2024-01-30T03:41:26;11.57;;;6.63;;
54193;SDS011;40102;50.906;6.972;2024-01-30T03:43:54;10.60;;;6.30;;
54193;SDS011;40102;50.906;6.972;2024-01-30T03:46:20;11.15;;;6.15;;
54193;SDS011;40102;50.906;6.972;2024-01-30T03:48:45;10.57;;;6.20;;
54193;SDS011;40102;50.906;6.972;2024-01-30T03:51:11;10.48;;;5.70;;
54193;SDS011;40102;50.906;6.972;2024-01-30T03:53:41;10.27;;;6.00;;
54193;SDS011;40102;50.906;6.972;2024-01-30T03:56:07;12.57;;;6.20;;
54193;SDS011;40102;50.906;6.972;2024-01-30T03:58:33;10.52;;;6.13;;
54193;SDS011;40102;50.906;6.972;2024-01-30T04:00:58;9.45;;;5.70;;
54193;SDS011;40102;50.906;6.972;2024-01-30T04:03:24;10.73;;;6.38;;
54193;SDS011;40102;50.906;6.972;2024-01-30T04:05:51;13.18;;;7.00;;
54193;SDS011;40102;50.906;6.972;2024-01-30T04:08:17;11.90;;;6.50;;
54193;SDS011;40102;50.906;6.972;2024-01-30T04:10:42;9.60;;;5.70;;
54193;SDS011;40102;50.906;6.972;2024-01-30T04:13:08;13.07;;;6.55;;
54193;SDS011;40102;50.906;6.972;2024-01-30T04:15:34;10.73;;;6.63;;
54193;SDS011;40102;50.906;6.972;2024-01-30T04:17:59;11.15;;;6.60;;
54193;SDS011;40102;50.906;6.972;2024-01-30T04:20:25;14.48;;;6.22;;
54193;SDS011;40102;50.906;6.972;2024-01-30T04:22:51;9.75;;;6.05;;
54193;SDS011;40102;50.906;6.972;2024-01-30T04:25:16;9.68;;;6.18;;
54193;SDS011;40102;50.906;6.972;2024-01-30T04:27:42;12.23;;;5.88;;
54193;SDS011;40102;50.906;6.972;2024-01-30T04:30:07;12.27;;;6.32;;
54193;SDS011;40102;50.906;6.972;2024-01-30T04:32:34;9.82;;;5.75;;
54193;SDS011;40102;50.906;6.972;2024-01-30T04:35:03;12.68;;;5.88;;
54193;SDS011;40102;50.906;6.972;2024-01-30T04:37:29;9.75;;;6.10;;
54193;SDS011;40102;50.906;6.972;2024-01-30T04:39:54;9.35;;;5.75;;
54193;SDS011;40102;50.906;6.972;2024-01-30T04:42:20;13.50;;;6.45;;
54193;SDS011;40102;50.906;6.972;2024-01-30T04:44:45;9.27;;;5.32;;
54193;SDS011;40102;50.906;6.972;2024-01-30T04:47:10;9.82;;;5.32;;
54193;SDS011;40102;50.906;6.972;2024-01-30T04:49:38;11.45;;;5.80;;
54193;SDS011;40102;50.906;6.972;2024-01-30T04:52:05;11.65;;;6.10;;
54193;SDS011;40102;50.906;6.972;2024-01-30T04:54:31;11.27;;;6.18;;
54193;SDS011;40102;50.906;6.972;2024-01-30T04:56:56;10.75;;;5.95;;
54193;SDS011;40102;50.906;6.972;2024-01-30T04:59:22;10.23;;;5.57;;
54193;SDS011;40102;50.906;6.972;2024-01-30T05:01:47;11.55;;;6.22;;
54193;SDS011;40102;50.906;6.972;2024-01-30T05:04:12;11.40;;;5.90;;
54193;SDS011;40102;50.906;6.972;2024-01-30T05:06:38;9.95;;;6.03;;
54193;SDS011;40102;50.906;6.972;2024-01-30T05:09:03;11.65;;;6.35;;
54193;SDS011;40102;50.906;6.972;2024-01-30T05:11:29;9.68;;;5.85;;
54193;SDS011;40102;50.906;6.972;2024-01-30T05:13:55;10.00;;;6.10;;
54193;SDS011;40102;50.906;6.972;2024-01-30T05:16:20;10.48;;;6.22;;
54193;SDS011;40102;50.906;6.972;2024-01-30T05:18:46;10.07;;;6.00;;
54193;SDS011;40102;50.906;6.972;2024-01-30T05:21:11;11.35;;;6.22;;
54193;SDS011;40102;50.906;6.972;2024-01-30T05:23:36;10.52;;;6.47;;
54193;SDS011;40102;50.906;6.972;2024-01-30T05:26:02;11.52;;;6.32;;
54193;SDS011;40102;50.906;6.972;2024-01-30T05:28:28;12.00;;;6.63;;
54193;SDS011;40102;50.906;6.972;2024-01-30T05:30:54;12.23;;;5.78;;
54193;SDS011;40102;50.906;6.972;2024-01-30T05:33:20;12.20;;;5.93;;
54193;SDS011;40102;50.906;6.972;2024-01-30T05:35:46;11.68;;;6.15;;
54193;SDS011;40102;50.906;6.972;2024-01-30T05:38:11;11.88;;;6.85;;
54193;SDS011;40102;50.906;6.972;2024-01-30T05:40:37;12.13;;;6.22;;
54193;SDS011;40102;50.906;6.972;2024-01-30T05:43:03;10.98;;;5.72;;
54193;SDS011;40102;50.906;6.972;2024-01-30T05:45:28;11.80;;;6.18;;
54193;SDS011;40102;50.906;6.972;2024-01-30T05:47:54;11.20;;;5.88;;
54193;SDS011;40102;50.906;6.972;2024-01-30T05:50:19;14.68;;;6.05;;
54193;SDS011;40102;50.906;6.972;2024-01-30T05:52:45;8.73;;;5.70;;
54193;SDS011;40102;50.906;6.972;2024-01-30T05:55:11;13.82;;;6.53;;
54193;SDS011;40102;50.906;6.972;2024-01-30T05:57:37;8.45;;;5.55;;
54193;SDS011;40102;50.906;6.972;2024-01-30T06:00:03;10.40;;;6.20;;
54193;SDS011;40102;50.906;6.972;2024-01-30T06:02:30;10.30;;;6.18;;
54193;SDS011;40102;50.906;6.972;2024-01-30T06:04:56;12.70;;;5.97;;
54193;SDS011;40102;50.906;6.972;2024-01-30T06:07:21;9.52;;;6.10;;
54193;SDS011;40102;50.906;6.972;2024-01-30T06:09:47;10.93;;;5.38;;
54193;SDS011;40102;50.906;6.972;2024-01-30T06:12:12;10.07;;;6.65;;
54193;SDS011;40102;50.906;6.972;2024-01-30T06:14:38;12.50;;;5.47;;
54193;SDS011;40102;50.906;6.972;2024-01-30T06:17:03;13.95;;;6.07;;
54193;SDS011;40102;50.906;6.972;2024-01-30T06:19:30;10.25;;;5.43;;
54193;SDS011;40102;50.906;6.972;2024-01-30T06:21:55;11.40;;;5.10;;
54193;SDS011;40102;50.906;6.972;2024-01-30T06:24:20;11.43;;;5.75;;
54193;SDS011;40102;50.906;6.972;2024-01-30T06:26:46;11.35;;;6.10;;
54193;SDS011;40102;50.906;6.972;2024-01-30T06:29:11;12.98;;;6.72;;
54193;SDS011;40102;50.906;6.972;2024-01-30T06:31:40;13.45;;;7.05;;
54193;SDS011;40102;50.906;6.972;2024-01-30T06:34:09;12.27;;;6.10;;
54193;SDS011;40102;50.906;6.972;2024-01-30T06:36:35;13.13;;;6.70;;
54193;SDS011;40102;50.906;6.972;2024-01-30T06:39:01;11.45;;;6.28;;
54193;SDS011;40102;50.906;6.972;2024-01-30T06:41:27;12.80;;;6.40;;
54193;SDS011;40102;50.906;6.972;2024-01-30T06:43:53;11.13;;;6.20;;
54193;SDS011;40102;50.906;6.972;2024-01-30T06:46:18;11.80;;;6.40;;
54193;SDS011;40102;50.906;6.972;2024-01-30T06:48:43;11.52;;;6.60;;
54193;SDS011;40102;50.906;6.972;2024-01-30T06:51:10;10.57;;;6.45;;
54193;SDS011;40102;50.906;6.972;2024-01-30T06:53:36;11.68;;;6.40;;
54193;SDS011;40102;50.906;6.972;2024-01-30T06:56:01;10.52;;;6.07;;
54193;SDS011;40102;50.906;6.972;2024-01-30T06:58:27;11.00;;;6.18;;
54193;SDS011;40102;50.906;6.972;2024-01-30T07:00:53;10.57;;;6.07;;
54193;SDS011;40102;50.906;6.972;2024-01-30T07:03:19;11.93;;;6.90;;
54193;SDS011;40102;50.906;6.972;2024-01-30T07:05:45;12.05;;;6.18;;
54193;SDS011;40102;50.906;6.972;2024-01-30T07:08:10;13.20;;;6.70;;
54193;SDS011;40102;50.906;6.972;2024-01-30T07:10:36;12.38;;;6.72;;
54193;SDS011;40102;50.906;6.972;2024-01-30T07:13:01;13.45;;;6.85;;
54193;SDS011;40102;50.906;6.972;2024-01-30T07:15:27;10.63;;;6.68;;
54193;SDS011;40102;50.906;6.972;2024-01-30T07:17:52;11.23;;;6.10;;
54193;SDS011;40102;50.906;6.972;2024-01-30T07:20:18;9.82;;;5.80;;
54193;SDS011;40102;50.906;6.972;2024-01-30T07:22:45;12.85;;;6.75;;
54193;SDS011;40102;50.906;6.972;2024-01-30T07:25:11;13.43;;;6.22;;
54193;SDS011;40102;50.906;6.972;2024-01-30T07:27:36;13.50;;;6.45;;
54193;SDS011;40102;50.906;6.972;2024-01-30T07:30:02;10.15;;;6.10;;
54193;SDS011;40102;50.906;6.972;2024-01-30T07:32:28;10.52;;;6.00;;
54193;SDS011;40102;50.906;6.972;2024-01-30T07:34:53;10.20;;;5.38;;
54193;SDS011;40102;50.906;6.972;2024-01-30T07:37:19;11.55;;;6.40;;
54193;SDS011;40102;50.906;6.972;2024-01-30T07:39:44;11.60;;;6.57;;
54193;SDS011;40102;50.906;6.972;2024-01-30T07:42:10;10.80;;;6.55;;
54193;SDS011;40102;50.906;6.972;2024-01-30T07:44:35;10.07;;;6.53;;
54193;SDS011;40102;50.906;6.972;2024-01-30T07:47:01;10.27;;;5.78;;
54193;SDS011;40102;50.906;6.972;2024-01-30T07:49:28;11.82;;;6.00;;
54193;SDS011;40102;50.906;6.972;2024-01-30T07:51:53;11.20;;;6.32;;
54193;SDS011;40102;50.906;6.972;2024-01-30T07:54:19;11.52;;;6.38;;
54193;SDS011;40102;50.906;6.972;2024-01-30T08:03:27;10.23;;;6.10;;
54193;SDS011;40102;50.906;6.972;2024-01-30T08:05:53;13.30;;;6.40;;
54193;SDS011;40102;50.906;6.972;2024-01-30T08:08:18;14.13;;;6.50;;
54193;SDS011;40102;50.906;6.972;2024-01-30T08:10:44;12.45;;;6.07;;
54193;SDS011;40102;50.906;6.972;2024-01-30T08:13:09;9.45;;;5.90;;
54193;SDS011;40102;50.906;6.972;2024-01-30T08:15:35;13.65;;;6.18;;
54193;SDS011;40102;50.906;6.972;2024-01-30T08:18:00;12.20;;;6.20;;
54193;SDS011;40102;50.906;6.972;2024-01-30T08:20:25;11.63;;;6.18;;
54193;SDS011;40102;50.906;6.972;2024-01-30T08:22:51;10.80;;;5.85;;
54193;SDS011;40102;50.906;6.972;2024-01-30T08:25:17;10.32;;;5.63;;
54193;SDS011;40102;50.906;6.972;2024-01-30T08:27:43;10.60;;;6.00;;
54193;SDS011;40102;50.906;6.972;2024-01-30T08:30:09;11.35;;;5.65;;
54193;SDS011;40102;50.906;6.972;2024-01-30T08:32:34;9.63;;;5.63;;
54193;SDS011;40102;50.906;6.972;2024-01-30T08:35:00;12.10;;;5.78;;
54193;SDS011;40102;50.906;6.972;2024-01-30T08:37:29;11.45;;;6.25;;
54193;SDS011;40102;50.906;6.972;2024-01-30T08:39:57;13.27;;;6.10;;
54193;SDS011;40102;50.906;6.972;2024-01-30T08:42:23;11.50;;;6.20;;
54193;SDS011;40102;50.906;6.972;2024-01-30T08:44:49;10.55;;;5.60;;
54193;SDS011;40102;50.906;6.972;2024-01-30T08:47:16;11.82;;;6.20;;
54193;SDS011;40102;50.906;6.972;2024-01-30T08:49:42;14.02;;;6.30;;
54193;SDS011;40102;50.906;6.972;2024-01-30T08:52:09;9.43;;;5.55;;
54193;SDS011;40102;50.906;6.972;2024-01-30T08:54:35;8.75;;;5.57;;
54193;SDS011;40102;50.906;6.972;2024-01-30T08:57:00;11.20;;;6.05;;
54193;SDS011;40102;50.906;6.972;2024-01-30T08:59:26;11.27;;;6.25;;
54193;SDS011;40102;50.906;6.972;2024-01-30T09:01:51;9.93;;;5.72;;
54193;SDS011;40102;50.906;6.972;2024-01-30T09:04:20;10.90;;;6.07;;
54193;SDS011;40102;50.906;6.972;2024-01-30T09:06:45;13.38;;;6.55;;
54193;SDS011;40102;50.906;6.972;2024-01-30T09:09:11;10.18;;;6.10;;
54193;SDS011;40102;50.906;6.972;2024-01-30T09:11:36;10.68;;;6.05;;
54193;SDS011;40102;50.906;6.972;2024-01-30T09:14:02;11.82;;;6.63;;
54193;SDS011;40102;50.906;6.972;2024-01-30T09:16:27;10.77;;;6.28;;
54193;SDS011;40102;50.906;6.972;2024-01-30T09:18:53;9.43;;;5.63;;
54193;SDS011;40102;50.906;6.972;2024-01-30T09:21:18;11.50;;;5.90;;
54193;SDS011;40102;50.906;6.972;2024-01-30T09:23:44;10.15;;;6.80;;
54193;SDS011;40102;50.906;6.972;2024-01-30T09:26:09;9.93;;;5.95;;
54193;SDS011;40102;50.906;6.972;2024-01-30T09:28:35;9.93;;;6.30;;
54193;SDS011;40102;50.906;6.972;2024-01-30T09:31:00;12.65;;;6.50;;
54193;SDS011;40102;50.906;6.972;2024-01-30T09:33:26;10.98;;;6.88;;
54193;SDS011;40102;50.906;6.972;2024-01-30T09:35:51;9.70;;;5.70;;
54193;SDS011;40102;50.906;6.972;2024-01-30T09:38:16;12.27;;;6.30;;
54193;SDS011;40102;50.906;6.972;2024-01-30T09:40:42;10.73;;;6.68;;
54193;SDS011;40102;50.906;6.972;2024-01-30T09:43:08;9.50;;;6.10;;
54193;SDS011;40102;50.906;6.972;2024-01-30T09:45:42;12.23;;;6.25;;
54193;SDS011;40102;50.906;6.972;2024-01-30T09:48:09;11.18;;;6.22;;
54193;SDS011;40102;50.906;6.972;2024-01-30T09:50:35;11.68;;;5.47;;
54193;SDS011;40102;50.906;6.972;2024-01-30T09:53:02;12.32;;;6.72;;
54193;SDS011;40102;50.906;6.972;2024-01-30T09:55:28;13.98;;;6.68;;
54193;SDS011;40102;50.906;6.972;2024-01-30T09:57:54;11.52;;;6.22;;
54193;SDS011;40102;50.906;6.972;2024-01-30T10:00:19;13.65;;;6.53;;
54193;SDS011;40102;50.906;6.972;2024-01-30T10:02:47;12.02;;;6.55;;
54193;SDS011;40102;50.906;6.972;2024-01-30T10:05:14;14.27;;;5.57;;
54193;SDS011;40102;50.906;6.972;2024-01-30T10:07:49;12.13;;;6.47;;
54193;SDS011;40102;50.906;6.972;2024-01-30T10:10:17;13.52;;;6.03;;
54193;SDS011;40102;50.906;6.972;2024-01-30T10:12:43;12.95;;;6.43;;
54193;SDS011;40102;50.906;6.972;2024-01-30T10:15:08;11.25;;;6.25;;
54193;SDS011;40102;50.906;6.972;2024-01-30T10:17:34;11.35;;;5.93;;
54193;SDS011;40102;50.906;6.972;2024-01-30T10:20:04;11.98;;;6.53;;
54193;SDS011;40102;50.906;6.972;2024-01-30T10:22:30;11.52;;;6.40;;
54193;SDS011;40102;50.906;6.972;2024-01-30T10:24:55;10.73;;;6.07;;
54193;SDS011;40102;50.906;6.972;2024-01-30T10:27:27;11.27;;;5.57;;
54193;SDS011;40102;50.906;6.972;2024-01-30T10:29:54;10.75;;;5.90;;
54193;SDS011;40102;50.906;6.972;2024-01-30T10:32:20;10.88;;;5.82;;
54193;SDS011;40102;50.906;6.972;2024-01-30T10:34:46;12.90;;;6.00;;
54193;SDS011;40102;50.906;6.972;2024-01-30T10:37:11;8.77;;;5.75;;
54193;SDS011;40102;50.906;6.972;2024-01-30T10:39:46;9.32;;;5.20;;
54193;SDS011;40102;50.906;6.972;2024-01-30T10:42:15;9.30;;;5.30;;
54193;SDS011;40102;50.906;6.972;2024-01-30T10:47:34;8.55;;;5.18;;
54193;SDS011;40102;50.906;6.972;2024-01-30T10:50:01;9.27;;;5.55;;
54193;SDS011;40102;50.906;6.972;2024-01-30T10:52:28;11.07;;;5.13;;
54193;SDS011;40102;50.906;6.972;2024-01-30T10:54:55;9.07;;;5.50;;
54193;SDS011;40102;50.906;6.972;2024-01-30T10:57:24;8.18;;;5.05;;
54193;SDS011;40102;50.906;6.972;2024-01-30T10:59:57;10.60;;;5.07;;
54193;SDS011;40102;50.906;6.972;2024-01-30T11:02:24;6.45;;;4.20;;
54193;SDS011;40102;50.906;6.972;2024-01-30T11:04:54;8.68;;;4.80;;
54193;SDS011;40102;50.906;6.972;2024-01-30T11:07:28;9.18;;;4.82;;
54193;SDS011;40102;50.906;6.972;2024-01-30T11:12:23;8.40;;;4.93;;
54193;SDS011;40102;50.906;6.972;2024-01-30T11:14:50;8.48;;;5.32;;
54193;SDS011;40102;50.906;6.972;2024-01-30T11:17:28;11.73;;;5.97;;
54193;SDS011;40102;50.906;6.972;2024-01-30T11:19:53;10.35;;;6.00;;
54193;SDS011;40102;50.906;6.972;2024-01-30T11:22:20;8.75;;;5.07;;
54193;SDS011;40102;50.906;6.972;2024-01-30T11:24:46;8.10;;;5.28;;
54193;SDS011;40102;50.906;6.972;2024-01-30T11:27:12;9.13;;;5.25;;
54193;SDS011;40102;50.906;6.972;2024-01-30T11:29:38;9.55;;;5.65;;
54193;SDS011;40102;50.906;6.972;2024-01-30T11:32:05;9.35;;;5.35;;
54193;SDS011;40102;50.906;6.972;2024-01-30T11:34:32;8.95;;;4.88;;
54193;SDS011;40102;50.906;6.972;2024-01-30T11:36:59;7.70;;;4.80;;
54193;SDS011;40102;50.906;6.972;2024-01-30T11:39:34;5.88;;;4.07;;
54193;SDS011;40102;50.906;6.972;2024-01-30T11:42:01;6.13;;;3.97;;
54193;SDS011;40102;50.906;6.972;2024-01-30T11:44:30;8.88;;;4.60;;
54193;SDS011;40102;50.906;6.972;2024-01-30T11:46:55;8.80;;;4.80;;
54193;SDS011;40102;50.906;6.972;2024-01-30T11:49:24;9.32;;;4.60;;
54193;SDS011;40102;50.906;6.972;2024-01-30T11:51:50;10.00;;;5.30;;
54193;SDS011;40102;50.906;6.972;2024-01-30T11:54:15;8.38;;;5.05;;
54193;SDS011;40102;50.906;6.972;2024-01-30T11:56:42;11.27;;;5.15;;
54193;SDS011;40102;50.906;6.972;2024-01-30T11:59:08;11.25;;;5.38;;
54193;SDS011;40102;50.906;6.972;2024-01-30T12:01:33;9.05;;;4.80;;
54193;SDS011;40102;50.906;6.972;2024-01-30T12:03:59;8.48;;;4.97;;
54193;SDS011;40102;50.906;6.972;2024-01-30T12:06:25;8.02;;;4.80;;
54193;SDS011;40102;50.906;6.972;2024-01-30T12:09:00;9.15;;;5.22;;
54193;SDS011;40102;50.906;6.972;2024-01-30T12:11:30;10.30;;;5.30;;
54193;SDS011;40102;50.906;6.972;2024-01-30T12:13:56;9.93;;;5.20;;
54193;SDS011;40102;50.906;6.972;2024-01-30T12:16:21;8.45;;;4.47;;
54193;SDS011;40102;50.906;6.972;2024-01-30T12:18:47;10.13;;;4.90;;
54193;SDS011;40102;50.906;6.972;2024-01-30T12:21:16;7.50;;;4.55;;
54193;SDS011;40102;50.906;6.972;2024-01-30T12:23:41;6.72;;;4.55;;
54193;SDS011;40102;50.906;6.972;2024-01-30T12:26:07;6.82;;;4.50;;
54193;SDS011;40102;50.906;6.972;2024-01-30T12:28:33;7.10;;;4.05;;
54193;SDS011;40102;50.906;6.972;2024-01-30T12:31:02;9.40;;;3.97;;
54193;SDS011;40102;50.906;6.972;2024-01-30T12:33:28;9.32;;;4.32;;
54193;SDS011;40102;50.906;6.972;2024-01-30T12:35:54;7.25;;;4.30;;
54193;SDS011;40102;50.906;6.972;2024-01-30T12:38:19;5.93;;;3.72;;
54193;SDS011;40102;50.906;6.972;2024-01-30T12:40:45;8.30;;;3.85;;
54193;SDS011;40102;50.906;6.972;2024-01-30T12:43:11;5.35;;;3.60;;
54193;SDS011;40102;50.906;6.972;2024-01-30T12:45:38;7.03;;;3.33;;
54193;SDS011;40102;50.906;6.972;2024-01-30T12:48:04;6.43;;;3.53;;
54193;SDS011;40102;50.906;6.972;2024-01-30T12:50:30;5.82;;;3.65;;
54193;SDS011;40102;50.906;6.972;2024-01-30T12:52:55;7.25;;;4.40;;
54193;SDS011;40102;50.906;6.972;2024-01-30T12:55:21;8.10;;;4.50;;
54193;SDS011;40102;50.906;6.972;2024-01-30T12:57:46;9.35;;;4.78;;
54193;SDS011;40102;50.906;6.972;2024-01-30T13:00:12;8.60;;;4.40;;
54193;SDS011;40102;50.906;6.972;2024-01-30T13:02:37;9.15;;;4.55;;
54193;SDS011;40102;50.906;6.972;2024-01-30T13:05:03;7.22;;;3.75;;
54193;SDS011;40102;50.906;6.972;2024-01-30T13:07:29;6.30;;;4.03;;
54193;SDS011;40102;50.906;6.972;2024-01-30T13:09:54;8.88;;;4.90;;
54193;SDS011;40102;50.906;6.972;2024-01-30T13:12:20;6.57;;;4.18;;
54193;SDS011;40102;50.906;6.972;2024-01-30T13:14:45;10.43;;;5.30;;
54193;SDS011;40102;50.906;6.972;2024-01-30T13:17:13;9.00;;;5.35;;
54193;SDS011;40102;50.906;6.972;2024-01-30T13:19:39;7.85;;;5.00;;
54193;SDS011;40102;50.906;6.972;2024-01-30T13:22:04;9.13;;;5.20;;
54193;SDS011;40102;50.906;6.972;2024-01-30T13:24:30;8.40;;;4.85;;
54193;SDS011;40102;50.906;6.972;2024-01-30T13:26:56;10.43;;;4.72;;
54193;SDS011;40102;50.906;6.972;2024-01-30T13:29:21;7.65;;;4.40;;
54193;SDS011;40102;50.906;6.972;2024-01-30T13:31:50;8.23;;;4.63;;
54193;SDS011;40102;50.906;6.972;2024-01-30T13:34:15;6.70;;;4.00;;
54193;SDS011;40102;50.906;6.972;2024-01-30T13:36:41;7.28;;;3.70;;
54193;SDS011;40102;50.906;6.972;2024-01-30T13:39:06;7.40;;;3.88;;
54193;SDS011;40102;50.906;6.972;2024-01-30T13:41:34;6.90;;;3.88;;
54193;SDS011;40102;50.906;6.972;2024-01-30T13:44:00;8.68;;;4.53;;
54193;SDS011;40102;50.906;6.972;2024-01-30T13:46:28;7.38;;;3.97;;
54193;SDS011;40102;50.906;6.972;2024-01-30T13:48:57;10.80;;;4.47;;
54193;SDS011;40102;50.906;6.972;2024-01-30T13:51:23;7.15;;;4.35;;
54193;SDS011;40102;50.906;6.972;2024-01-30T13:53:49;6.47;;;4.20;;
54193;SDS011;40102;50.906;6.972;2024-01-30T13:56:15;6.60;;;4.45;;
54193;SDS011;40102;50.906;6.972;2024-01-30T13:58:44;8.68;;;4.43;;
54193;SDS011;40102;50.906;6.972;2024-01-30T14:01:09;11.32;;;4.60;;
54193;SDS011;40102;50.906;6.972;2024-01-30T14:03:35;6.95;;;4.15;;
54193;SDS011;40102;50.906;6.972;2024-01-30T14:06:00;6.85;;;3.65;;
54193;SDS011;40102;50.906;6.972;2024-01-30T14:08:26;6.68;;;3.90;;
54193;SDS011;40102;50.906;6.972;2024-01-30T14:10:53;7.63;;;4.13;;
54193;SDS011;40102;50.906;6.972;2024-01-30T14:13:20;7.65;;;3.97;;
54193;SDS011;40102;50.906;6.972;2024-01-30T14:15:46;9.20;;;4.60;;
54193;SDS011;40102;50.906;6.972;2024-01-30T14:18:11;10.23;;;5.38;;
54193;SDS011;40102;50.906;6.972;2024-01-30T14:20:37;9.07;;;5.13;;
54193;SDS011;40102;50.906;6.972;2024-01-30T14:23:02;9.18;;;5.25;;
54193;SDS011;40102;50.906;6.972;2024-01-30T14:25:28;9.65;;;4.85;;
54193;SDS011;40102;50.906;6.972;2024-01-30T14:27:53;5.75;;;3.85;;
54193;SDS011;40102;50.906;6.972;2024-01-30T14:30:18;10.25;;;4.75;;
54193;SDS011;40102;50.906;6.972;2024-01-30T14:32:47;11.13;;;5.45;;
54193;SDS011;40102;50.906;6.972;2024-01-30T14:35:13;11.63;;;5.95;;
54193;SDS011;40102;50.906;6.972;2024-01-30T14:37:39;8.85;;;4.55;;
54193;SDS011;40102;50.906;6.972;2024-01-30T14:40:05;12.82;;;5.57;;
54193;SDS011;40102;50.906;6.972;2024-01-30T14:42:34;11.60;;;5.82;;
54193;SDS011;40102;50.906;6.972;2024-01-30T14:45:01;9.60;;;4.65;;